Time;durP1;ratioP1;P1;durP2;ratioP2;P2;SDS_P1;SDS_P2;PMS_P1;PMS_P2;Temp;Humidity;BMP_temperature;BMP_pressure;BME280_temperature;BME280_humidity;BME280_pressure;Samples;Min_cycle;Max_cycle;Signal;HPM_P1;HPM_P2
2023/05/25 00:01:25;;;;;;;35.47;33.15;;;13.20;99.90;;;;;;5268832;28;20077;-68
2023/05/25 00:03:55;;;;;;;37.13;34.72;;;12.90;99.90;;;;;;5268658;28;20067;-68
2023/05/25 00:06:26;;;;;;;40.42;37.80;;;12.70;99.90;;;;;;5268794;28;20404;-69
2023/05/25 00:08:57;;;;;;;38.08;35.72;;;12.90;99.90;;;;;;5268805;28;20012;-68
2023/05/25 00:11:28;;;;;;;38.42;35.92;;;13.20;99.90;;;;;;5268638;28;20020;-69
2023/05/25 00:13:58;;;;;;;37.67;35.35;;;13.00;99.90;;;;;;5268652;28;20024;-68
2023/05/25 00:16:30;;;;;;;36.83;34.28;;;13.30;99.90;;;;;;5268630;28;20112;-69
2023/05/25 00:19:02;;;;;;;36.60;34.25;;;13.30;99.90;;;;;;5268323;28;20036;-68
2023/05/25 00:21:36;;;;;;;35.13;32.92;;;13.30;99.90;;;;;;5268575;28;20023;-69
2023/05/25 00:24:07;;;;;;;37.38;35.15;;;13.20;99.90;;;;;;5268426;28;20098;-69
2023/05/25 00:26:38;;;;;;;37.40;34.97;;;13.00;99.90;;;;;;5268425;28;20024;-68
2023/05/25 00:29:09;;;;;;;37.50;35.05;;;13.10;99.90;;;;;;5268349;28;20055;-69
2023/05/25 00:31:40;;;;;;;35.35;33.20;;;13.40;99.90;;;;;;5268359;28;20074;-69
2023/05/25 00:34:11;;;;;;;40.03;37.22;;;13.20;99.90;;;;;;5268392;28;20380;-69
2023/05/25 00:36:42;;;;;;;41.67;38.80;;;13.20;99.90;;;;;;5268326;28;20016;-69
2023/05/25 00:39:19;;;;;;;42.38;39.58;;;13.10;99.90;;;;;;5268344;28;20028;-66
2023/05/25 00:41:50;;;;;;;41.85;39.03;;;13.40;99.90;;;;;;5268171;28;20046;-69
2023/05/25 00:44:20;;;;;;;41.55;38.17;;;13.30;99.90;;;;;;5268146;28;20544;-67
2023/05/25 00:46:51;;;;;;;40.13;36.42;;;13.00;99.90;;;;;;5268089;28;20020;-69
2023/05/25 00:49:22;;;;;;;40.88;37.40;;;13.00;99.90;;;;;;5267891;28;20048;-69
2023/05/25 00:51:53;;;;;;;39.38;35.60;;;13.00;99.90;;;;;;5268089;28;20109;-69
2023/05/25 00:54:24;;;;;;;41.67;37.38;;;13.00;99.90;;;;;;5268190;28;20540;-69
2023/05/25 00:57:05;;;;;;;40.63;36.60;;;13.10;99.90;;;;;;5268262;28;20032;-69
2023/05/25 00:59:45;;;;;;;39.85;35.95;;;13.30;99.90;;;;;;5268001;28;20024;-69
2023/05/25 01:02:18;;;;;;;44.85;36.15;;;13.30;99.90;;;;;;5267917;28;20078;-69
2023/05/25 01:04:53;;;;;;;45.97;36.95;;;13.20;99.90;;;;;;5267888;28;20044;-68
2023/05/25 01:07:26;;;;;;;43.42;35.22;;;13.10;99.90;;;;;;5268055;28;20028;-66
2023/05/25 01:10:03;;;;;;;50.35;38.90;;;13.00;99.90;;;;;;5267950;28;20097;-66
2023/05/25 01:12:38;;;;;;;48.00;40.67;;;13.10;99.90;;;;;;5268024;28;20023;-69
2023/05/25 01:15:09;;;;;;;45.13;33.03;;;13.30;99.90;;;;;;5268095;28;20104;-66
2023/05/25 01:17:42;;;;;;;38.42;34.15;;;13.10;99.90;;;;;;5271944;28;20024;-69
2023/05/25 01:20:13;;;;;;;51.60;37.95;;;13.30;99.90;;;;;;5271759;28;20043;-69
2023/05/25 01:22:50;;;;;;;44.83;38.42;;;13.20;99.90;;;;;;5272161;28;20464;-69
2023/05/25 01:25:35;;;;;;;58.70;36.78;;;13.30;99.90;;;;;;5272146;28;20062;-69
2023/05/25 01:28:10;;;;;;;46.60;37.10;;;13.10;99.90;;;;;;5272052;28;20494;-66
2023/05/25 01:30:44;;;;;;;81.03;38.00;;;13.10;99.90;;;;;;5271829;28;20418;-69
2023/05/25 01:33:17;;;;;;;92.40;38.35;;;13.00;99.90;;;;;;5271783;28;20028;-69
2023/05/25 01:35:50;;;;;;;65.65;39.85;;;13.00;99.90;;;;;;5271676;28;20065;-68
2023/05/25 01:38:20;;;;;;;64.97;40.35;;;13.20;99.90;;;;;;5271936;28;20118;-69
2023/05/25 01:40:51;;;;;;;49.67;39.85;;;13.20;99.90;;;;;;5271637;28;20081;-69
2023/05/25 01:43:24;;;;;;;44.88;40.95;;;13.20;99.90;;;;;;5271532;28;20387;-68
2023/05/25 01:46:20;;;;;;;47.20;43.53;;;13.30;99.90;;;;;;5271421;28;20129;-66
2023/05/25 01:49:05;;;;;;;45.20;41.63;;;13.30;99.90;;;;;;5270748;28;20132;-69
2023/05/25 01:52:06;;;;;;;45.95;41.15;;;13.40;99.90;;;;;;5271532;28;20028;-69
2023/05/25 01:54:43;;;;;;;44.08;40.10;;;13.30;99.90;;;;;;5271283;28;20024;-69
2023/05/25 01:57:16;;;;;;;43.83;39.60;;;13.40;99.90;;;;;;5271330;28;20028;-69
2023/05/25 01:59:48;;;;;;;36.42;33.20;;;13.30;99.90;;;;;;5270920;28;20020;-66
2023/05/25 02:02:19;;;;;;;35.63;32.10;;;13.40;99.90;;;;;;5271084;28;20031;-66
2023/05/25 02:04:53;;;;;;;39.40;34.88;;;13.30;99.90;;;;;;5270948;28;20036;-66
2023/05/25 02:07:24;;;;;;;42.25;34.83;;;13.30;99.90;;;;;;5271051;28;20027;-69
2023/05/25 02:09:55;;;;;;;42.97;34.63;;;13.10;99.90;;;;;;5270863;28;20084;-68
2023/05/25 02:12:25;;;;;;;40.25;35.25;;;12.90;99.90;;;;;;5270793;28;20463;-69
2023/05/25 02:14:56;;;;;;;40.85;37.00;;;12.90;99.90;;;;;;5270867;28;20024;-66
2023/05/25 02:17:28;;;;;;;42.08;37.92;;;13.10;99.90;;;;;;5270796;28;20024;-69
2023/05/25 02:19:59;;;;;;;55.38;38.90;;;13.20;99.90;;;;;;5270533;28;20058;-69
2023/05/25 02:22:30;;;;;;;48.55;37.22;;;13.10;99.90;;;;;;5270655;28;20120;-68
2023/05/25 02:25:01;;;;;;;45.83;36.95;;;13.30;99.90;;;;;;5270667;28;20027;-69
2023/05/25 02:27:32;;;;;;;54.53;36.35;;;13.20;99.90;;;;;;5270429;28;20027;-66
2023/05/25 02:30:03;;;;;;;39.40;35.88;;;13.00;99.90;;;;;;5270509;28;20047;-68
2023/05/25 02:32:34;;;;;;;51.55;38.25;;;13.30;99.90;;;;;;5269469;28;20723;-69
2023/05/25 02:35:06;;;;;;;61.97;39.70;;;13.20;99.90;;;;;;5270468;28;20032;-69
2023/05/25 02:37:37;;;;;;;47.67;42.63;;;13.20;99.90;;;;;;5270519;28;20020;-66
2023/05/25 02:40:10;;;;;;;48.47;43.90;;;13.10;99.90;;;;;;5270435;28;20062;-66
2023/05/25 02:42:41;;;;;;;51.58;41.05;;;13.20;99.90;;;;;;5270109;28;20028;-69
2023/05/25 02:45:11;;;;;;;58.15;42.95;;;13.20;99.90;;;;;;5270328;28;20494;-69
2023/05/25 02:47:42;;;;;;;67.35;44.28;;;12.90;99.90;;;;;;5270315;28;20098;-69
2023/05/25 02:50:13;;;;;;;69.50;43.00;;;13.00;99.90;;;;;;5269953;28;20499;-69
2023/05/25 02:52:44;;;;;;;63.75;42.00;;;12.80;99.90;;;;;;5270008;28;20056;-69
2023/05/25 02:55:17;;;;;;;73.15;39.92;;;12.80;99.90;;;;;;5270081;28;20085;-67
2023/05/25 02:57:48;;;;;;;42.22;38.42;;;12.80;99.90;;;;;;5270013;28;20099;-68
2023/05/25 03:00:19;;;;;;;44.00;38.00;;;13.00;99.90;;;;;;5269811;28;20130;-69
2023/05/25 03:02:50;;;;;;;48.40;32.50;;;13.10;99.90;;;;;;5269727;28;20487;-68
2023/05/25 03:05:21;;;;;;;36.00;31.88;;;13.00;99.90;;;;;;5269879;28;20039;-66
2023/05/25 03:07:53;;;;;;;32.60;30.20;;;13.00;99.90;;;;;;5269767;28;20012;-66
2023/05/25 03:10:23;;;;;;;35.10;30.30;;;13.10;99.90;;;;;;5269750;28;20404;-69
2023/05/25 03:12:54;;;;;;;41.75;32.78;;;13.10;99.90;;;;;;5269646;28;20016;-69
2023/05/25 03:15:25;;;;;;;46.97;32.38;;;12.90;99.90;;;;;;5269670;28;20020;-68
2023/05/25 03:17:59;;;;;;;49.72;34.10;;;13.00;99.90;;;;;;5269572;28;20023;-69
2023/05/25 03:20:31;;;;;;;51.05;33.95;;;12.90;99.90;;;;;;5269372;28;20100;-68
2023/05/25 03:23:02;;;;;;;34.05;31.45;;;13.00;99.90;;;;;;5269328;28;20486;-69
2023/05/25 03:25:33;;;;;;;35.03;30.98;;;13.20;99.90;;;;;;5269490;28;20039;-69
2023/05/25 03:28:03;;;;;;;59.40;30.60;;;13.20;99.90;;;;;;5269488;28;20476;-69
2023/05/25 03:30:34;;;;;;;43.58;30.02;;;13.00;99.90;;;;;;5269356;28;20035;-67
2023/05/25 03:33:05;;;;;;;37.78;31.42;;;13.00;99.90;;;;;;5269408;28;20507;-68
2023/05/25 03:35:36;;;;;;;34.03;31.58;;;13.10;99.90;;;;;;5269603;28;20471;-66
2023/05/25 03:38:06;;;;;;;31.98;28.98;;;13.30;99.90;;;;;;5269019;28;20031;-69
2023/05/25 03:40:37;;;;;;;31.05;27.73;;;13.20;99.90;;;;;;5269391;28;20016;-66
2023/05/25 03:43:08;;;;;;;30.02;27.20;;;13.10;99.90;;;;;;5269093;28;20032;-67
2023/05/25 03:45:39;;;;;;;36.00;28.98;;;13.10;99.90;;;;;;5269321;28;20111;-66
2023/05/25 03:48:10;;;;;;;30.63;27.17;;;12.90;99.90;;;;;;5269123;28;20059;-69
2023/05/25 03:50:40;;;;;;;29.55;27.17;;;12.90;99.90;;;;;;5268935;28;20058;-68
2023/05/25 03:53:11;;;;;;;51.90;30.13;;;13.00;99.90;;;;;;5269078;28;20340;-68
2023/05/25 03:55:42;;;;;;;61.63;32.25;;;12.80;99.90;;;;;;5268960;28;20027;-68
2023/05/25 03:58:14;;;;;;;50.95;31.10;;;12.90;99.90;;;;;;5268971;28;20052;-68
2023/05/25 04:00:47;;;;;;;32.45;29.10;;;12.90;99.90;;;;;;5268680;28;20077;-68
2023/05/25 04:03:19;;;;;;;30.45;28.02;;;13.10;99.90;;;;;;5268797;28;20127;-66
2023/05/25 04:05:50;;;;;;;30.65;28.55;;;13.00;99.90;;;;;;5268940;28;20027;-68
2023/05/25 04:08:21;;;;;;;31.83;29.73;;;13.10;99.90;;;;;;5268779;28;20028;-68
2023/05/25 04:10:52;;;;;;;29.90;28.02;;;13.20;99.90;;;;;;5268768;28;20103;-69
2023/05/25 04:13:22;;;;;;;28.33;26.58;;;13.30;99.90;;;;;;5268583;28;20107;-69
2023/05/25 04:15:54;;;;;;;27.35;25.70;;;13.40;99.90;;;;;;5268653;28;20375;-68
2023/05/25 04:18:25;;;;;;;28.88;27.23;;;13.40;99.90;;;;;;5268639;28;20422;-68
2023/05/25 04:20:56;;;;;;;30.75;28.95;;;13.50;99.90;;;;;;5268625;28;20032;-69
2023/05/25 04:23:27;;;;;;;31.17;29.42;;;13.60;99.90;;;;;;5268362;28;20032;-69
2023/05/25 04:25:58;;;;;;;34.20;32.20;;;13.70;99.90;;;;;;5268488;28;20023;-68
2023/05/25 04:28:29;;;;;;;33.83;31.90;;;13.50;99.90;;;;;;5268472;28;20063;-66
2023/05/25 04:31:00;;;;;;;35.95;33.88;;;13.60;99.90;;;;;;5268299;28;20024;-69
2023/05/25 04:33:33;;;;;;;34.80;32.60;;;13.60;99.90;;;;;;5268364;28;20073;-69
2023/05/25 04:36:10;;;;;;;35.72;33.63;;;13.70;99.90;;;;;;5268395;28;20036;-69
2023/05/25 04:38:41;;;;;;;35.40;33.28;;;13.80;99.90;;;;;;5268255;28;20066;-69
2023/05/25 04:41:13;;;;;;;34.47;32.47;;;13.80;99.90;;;;;;5268116;28;20042;-69
2023/05/25 04:43:46;;;;;;;34.03;32.05;;;13.90;99.90;;;;;;5268164;28;20020;-69
2023/05/25 04:46:17;;;;;;;33.67;31.77;;;13.80;99.90;;;;;;5268180;28;20043;-69
2023/05/25 04:48:49;;;;;;;33.25;31.38;;;13.90;99.90;;;;;;5267902;28;20015;-67
2023/05/25 04:51:21;;;;;;;32.40;30.40;;;14.00;99.90;;;;;;5270679;28;20059;-68
2023/05/25 04:53:52;;;;;;;30.13;28.42;;;13.90;99.90;;;;;;5272535;28;20081;-69
2023/05/25 04:56:24;;;;;;;32.88;30.98;;;14.20;99.90;;;;;;5272402;28;20036;-66
2023/05/25 04:58:55;;;;;;;34.22;32.10;;;14.20;99.90;;;;;;5272295;28;20719;-68
2023/05/25 05:01:26;;;;;;;34.30;32.20;;;14.00;99.90;;;;;;5272355;28;20063;-69
2023/05/25 05:03:56;;;;;;;32.90;31.00;;;14.20;99.90;;;;;;5272258;28;20036;-69
2023/05/25 05:06:27;;;;;;;34.22;32.25;;;14.30;99.90;;;;;;5272170;28;20440;-69
2023/05/25 05:08:58;;;;;;;33.13;31.17;;;14.30;99.90;;;;;;5272241;28;20012;-69
2023/05/25 05:11:29;;;;;;;31.73;29.77;;;14.50;99.90;;;;;;5272132;28;20024;-69
2023/05/25 05:14:00;;;;;;;30.63;28.73;;;14.60;99.90;;;;;;5272008;28;20027;-68
2023/05/25 05:16:33;;;;;;;34.88;32.75;;;14.70;99.90;;;;;;5272065;28;20024;-69
2023/05/25 05:19:04;;;;;;;33.95;31.85;;;14.70;99.90;;;;;;5271827;28;20383;-69
2023/05/25 05:21:35;;;;;;;32.40;30.20;;;14.60;99.90;;;;;;5271934;28;20031;-69
2023/05/25 05:24:06;;;;;;;29.38;27.13;;;14.80;99.90;;;;;;5271895;28;20058;-69
2023/05/25 05:26:38;;;;;;;29.45;27.35;;;14.80;99.90;;;;;;5271838;28;20028;-69
2023/05/25 05:29:09;;;;;;;29.50;27.50;;;14.90;99.90;;;;;;5271817;28;20705;-65
2023/05/25 05:31:40;;;;;;;29.45;27.45;;;15.00;99.90;;;;;;5271681;28;20035;-69
2023/05/25 05:34:11;;;;;;;28.60;26.60;;;15.10;99.90;;;;;;5271655;28;20016;-69
2023/05/25 05:36:42;;;;;;;32.88;30.33;;;15.30;99.90;;;;;;5271618;28;20031;-68
2023/05/25 05:39:13;;;;;;;34.22;31.58;;;15.40;99.90;;;;;;5270319;28;20044;-68
2023/05/25 05:41:44;;;;;;;34.03;31.23;;;15.50;99.90;;;;;;5271433;28;20025;-69
2023/05/25 05:44:15;;;;;;;34.67;31.88;;;15.60;99.90;;;;;;5271326;28;20032;-69
2023/05/25 05:46:45;;;;;;;35.45;32.58;;;15.70;99.90;;;;;;5271453;28;20035;-69
2023/05/25 05:49:16;;;;;;;35.58;32.47;;;15.90;99.90;;;;;;5271303;28;20039;-69
2023/05/25 05:51:47;;;;;;;34.50;31.67;;;16.00;99.90;;;;;;5271426;28;20364;-69
2023/05/25 05:54:18;;;;;;;35.75;32.58;;;16.10;99.90;;;;;;5271358;28;20059;-69
2023/05/25 05:56:49;;;;;;;37.15;33.95;;;16.20;99.90;;;;;;5271415;28;20377;-69
2023/05/25 05:59:20;;;;;;;38.33;35.13;;;16.20;99.90;;;;;;5271131;28;20032;-69
2023/05/25 06:01:51;;;;;;;37.05;33.80;;;16.30;99.90;;;;;;5270767;28;20032;-69
2023/05/25 06:04:24;;;;;;;37.75;34.58;;;16.60;99.90;;;;;;5271418;28;20044;-69
2023/05/25 06:06:55;;;;;;;38.83;35.50;;;16.70;99.90;;;;;;5271320;28;20097;-68
2023/05/25 06:09:26;;;;;;;38.83;35.60;;;16.70;99.90;;;;;;5271269;28;20052;-69
2023/05/25 06:11:57;;;;;;;39.58;36.38;;;16.80;99.90;;;;;;5271183;28;20345;-69
2023/05/25 06:14:28;;;;;;;36.90;33.90;;;16.90;99.90;;;;;;5271112;28;20028;-66
2023/05/25 06:16:59;;;;;;;34.28;31.30;;;17.00;99.90;;;;;;5269632;28;20039;-66
2023/05/25 06:19:29;;;;;;;33.10;30.55;;;17.10;99.90;;;;;;5270761;28;20028;-69
2023/05/25 06:22:00;;;;;;;32.40;29.77;;;17.00;99.90;;;;;;5270890;28;20047;-68
2023/05/25 06:24:31;;;;;;;31.23;28.45;;;16.90;99.90;;;;;;5270648;28;20050;-66
2023/05/25 06:27:02;;;;;;;31.63;29.13;;;16.90;99.90;;;;;;5270795;28;20028;-69
2023/05/25 06:29:33;;;;;;;31.20;28.70;;;17.00;99.90;;;;;;5270618;28;20027;-69
2023/05/25 06:32:04;;;;;;;30.73;28.20;;;17.00;99.90;;;;;;5270398;28;20089;-69
2023/05/25 06:34:35;;;;;;;27.70;25.35;;;17.60;99.90;;;;;;5270589;28;20039;-70
2023/05/25 06:37:06;;;;;;;28.77;26.40;;;17.90;99.90;;;;;;5270654;28;20035;-69
2023/05/25 06:39:38;;;;;;;27.30;25.23;;;17.80;99.90;;;;;;5270339;28;20028;-69
2023/05/25 06:42:10;;;;;;;31.98;29.17;;;17.80;99.90;;;;;;5270461;28;20779;-69
2023/05/25 06:44:41;;;;;;;27.13;25.05;;;17.80;99.90;;;;;;5270235;28;20077;-69
2023/05/25 06:47:12;;;;;;;28.10;25.90;;;17.90;99.90;;;;;;5270370;28;20032;-66
2023/05/25 06:49:42;;;;;;;31.20;28.98;;;18.30;99.90;;;;;;5269963;28;20044;-69
2023/05/25 06:52:13;;;;;;;28.08;26.17;;;18.60;99.90;;;;;;5270176;28;20052;-69
2023/05/25 06:54:44;;;;;;;27.13;25.00;;;18.40;99.90;;;;;;5270079;28;20024;-69
2023/05/25 06:57:15;;;;;;;26.75;24.85;;;18.60;99.90;;;;;;5270065;28;20020;-69
2023/05/25 06:59:45;;;;;;;32.00;29.77;;;18.80;99.90;;;;;;5269783;28;20107;-69
2023/05/25 07:02:17;;;;;;;27.27;25.42;;;18.90;99.90;;;;;;5269921;28;20380;-69
2023/05/25 07:04:48;;;;;;;27.15;24.92;;;18.70;99.90;;;;;;5269871;28;20035;-69
2023/05/25 07:07:19;;;;;;;29.00;26.95;;;18.70;99.90;;;;;;5269931;28;20017;-70
2023/05/25 07:09:50;;;;;;;28.20;26.20;;;18.90;99.90;;;;;;5269893;28;20087;-68
2023/05/25 07:12:20;;;;;;;27.73;25.73;;;19.10;99.90;;;;;;5269746;28;20020;-69
2023/05/25 07:14:51;;;;;;;29.80;27.70;;;19.10;99.90;;;;;;5268881;28;20020;-69
2023/05/25 07:17:22;;;;;;;29.83;27.92;;;19.60;99.90;;;;;;5269839;28;20028;-69
2023/05/25 07:19:53;;;;;;;30.98;28.90;;;19.40;99.90;;;;;;5269722;28;20475;-66
2023/05/25 07:22:24;;;;;;;33.17;30.92;;;19.40;99.90;;;;;;5269784;28;20114;-69
2023/05/25 07:24:55;;;;;;;37.38;34.88;;;19.30;99.90;;;;;;5269594;28;20078;-69
2023/05/25 07:27:26;;;;;;;36.10;33.60;;;19.80;99.90;;;;;;5269533;28;20051;-69
2023/05/25 07:29:57;;;;;;;37.80;35.30;;;20.10;99.90;;;;;;5267994;28;20063;-69
2023/05/25 07:32:28;;;;;;;38.20;35.40;;;20.20;99.90;;;;;;5269261;28;20040;-66
2023/05/25 07:34:58;;;;;;;36.05;33.83;;;20.20;99.90;;;;;;5269272;28;20047;-69
2023/05/25 07:37:29;;;;;;;32.35;29.90;;;20.00;99.90;;;;;;5269093;28;20032;-70
2023/05/25 07:40:00;;;;;;;33.72;31.25;;;19.90;99.90;;;;;;5269066;28;20038;-70
2023/05/25 07:42:33;;;;;;;31.92;29.65;;;19.90;99.90;;;;;;5268969;28;20031;-69
2023/05/25 07:45:04;;;;;;;33.35;31.10;;;20.20;99.90;;;;;;5268978;28;20024;-69
2023/05/25 07:47:35;;;;;;;34.42;31.83;;;20.30;99.90;;;;;;5268832;28;20107;-69
2023/05/25 07:50:06;;;;;;;32.90;30.60;;;20.20;99.90;;;;;;5268634;28;20138;-70
2023/05/25 07:52:37;;;;;;;29.50;27.55;;;20.30;99.90;;;;;;5268792;28;20038;-69
2023/05/25 07:55:08;;;;;;;34.72;32.42;;;20.50;99.90;;;;;;5268740;28;20444;-69
2023/05/25 07:57:39;;;;;;;32.20;29.90;;;20.60;99.90;;;;;;5268666;28;20020;-69
2023/05/25 08:00:10;;;;;;;32.00;29.70;;;20.40;99.90;;;;;;5268558;28;20028;-69
2023/05/25 08:02:41;;;;;;;35.72;33.33;;;20.30;99.90;;;;;;5268531;28;20020;-69
2023/05/25 08:05:12;;;;;;;33.65;31.27;;;20.50;99.90;;;;;;5268592;28;20024;-69
2023/05/25 08:07:44;;;;;;;32.47;30.17;;;20.80;99.90;;;;;;5268523;28;20032;-69
2023/05/25 08:10:15;;;;;;;33.30;31.00;;;21.00;99.90;;;;;;5268503;28;20044;-69
2023/05/25 08:12:46;;;;;;;34.00;31.60;;;20.70;99.90;;;;;;5268467;28;20063;-69
2023/05/25 08:15:17;;;;;;;34.47;32.13;;;20.70;99.90;;;;;;5268377;28;20095;-70
2023/05/25 08:17:49;;;;;;;34.70;32.38;;;21.10;99.90;;;;;;5268229;28;20063;-69
2023/05/25 08:20:20;;;;;;;35.75;33.28;;;21.00;99.90;;;;;;5268116;28;20042;-69
2023/05/25 08:22:53;;;;;;;33.33;30.63;;;21.00;99.90;;;;;;5268110;28;20027;-69
2023/05/25 08:25:24;;;;;;;31.33;28.83;;;21.20;99.90;;;;;;5268061;28;20035;-69
2023/05/25 08:27:55;;;;;;;33.10;30.80;;;21.10;99.90;;;;;;5268343;28;20484;-69
2023/05/25 08:30:26;;;;;;;35.63;33.13;;;21.10;99.90;;;;;;5268157;28;20095;-69
2023/05/25 08:32:56;;;;;;;33.70;31.38;;;21.40;99.90;;;;;;5268341;28;20430;-69
2023/05/25 08:35:27;;;;;;;30.27;28.08;;;21.50;99.90;;;;;;5268532;28;20448;-70
2023/05/25 08:37:58;;;;;;;29.95;27.90;;;21.70;99.90;;;;;;5268413;28;20020;-70
2023/05/25 08:40:29;;;;;;;30.25;28.05;;;21.50;99.90;;;;;;5268348;28;20028;-69
2023/05/25 08:43:00;;;;;;;29.23;27.13;;;21.60;99.90;;;;;;5268197;28;20036;-68
2023/05/25 08:45:30;;;;;;;27.48;25.40;;;21.70;99.90;;;;;;5268103;28;20063;-69
2023/05/25 08:48:08;;;;;;;27.33;25.23;;;21.40;99.90;;;;;;5268119;28;20029;-69
2023/05/25 08:50:40;;;;;;;25.50;23.58;;;21.60;99.90;;;;;;5267983;28;20048;-69
2023/05/25 08:53:12;;;;;;;24.20;22.42;;;21.90;99.90;;;;;;5268052;28;20032;-70
2023/05/25 08:55:44;;;;;;;24.40;22.52;;;22.10;99.90;;;;;;5268075;28;20521;-69
2023/05/25 08:58:22;;;;;;;25.10;23.25;;;22.20;99.90;;;;;;5268011;28;20479;-67
2023/05/25 09:00:57;;;;;;;24.38;22.27;;;22.00;99.90;;;;;;5267948;28;20031;-69
2023/05/25 09:03:32;;;;;;;24.23;22.42;;;22.10;99.90;;;;;;5267939;28;20024;-70
2023/05/25 09:06:03;;;;;;;22.15;20.35;;;22.00;99.90;;;;;;5268010;28;20048;-70
2023/05/25 09:08:36;;;;;;;21.33;19.63;;;21.70;99.90;;;;;;5267946;28;20064;-69
2023/05/25 09:11:07;;;;;;;23.38;21.10;;;22.10;99.90;;;;;;5267924;28;20028;-70
2023/05/25 09:13:39;;;;;;;21.05;19.30;;;22.10;99.90;;;;;;5267904;28;20027;-69
2023/05/25 09:16:10;;;;;;;19.77;18.08;;;22.10;99.90;;;;;;5267747;28;20059;-69
2023/05/25 09:18:41;;;;;;;21.90;19.92;;;22.40;99.90;;;;;;5267705;28;20055;-70
2023/05/25 09:21:12;;;;;;;22.45;20.65;;;22.40;99.90;;;;;;5267739;28;20460;-70
2023/05/25 09:23:43;;;;;;;21.13;19.35;;;22.70;99.90;;;;;;5267743;28;20500;-69
2023/05/25 09:26:14;;;;;;;29.25;22.02;;;22.70;99.90;;;;;;5267660;28;20028;-69
2023/05/25 09:28:46;;;;;;;17.55;16.15;;;22.50;99.90;;;;;;5267551;28;20038;-69
2023/05/25 09:31:17;;;;;;;19.55;17.50;;;22.30;99.90;;;;;;5267495;28;20031;-70
2023/05/25 09:33:47;;;;;;;20.38;18.77;;;22.00;99.90;;;;;;5267578;28;20028;-69
2023/05/25 09:36:20;;;;;;;20.75;18.63;;;21.90;99.90;;;;;;5261178;28;20027;-66
2023/05/25 09:38:55;;;;;;;19.20;17.60;;;22.50;99.90;;;;;;5271365;28;20389;-68
2023/05/25 09:41:28;;;;;;;21.50;19.08;;;22.20;99.90;;;;;;5265701;28;20081;-69
2023/05/25 09:44:00;;;;;;;19.35;17.85;;;22.10;99.90;;;;;;5250368;28;20101;-69
2023/05/25 09:46:35;;;;;;;18.80;17.40;;;22.00;99.90;;;;;;5250381;28;20032;-69
2023/05/25 09:49:07;;;;;;;18.02;16.60;;;22.30;99.90;;;;;;5250167;28;20727;-70
2023/05/25 09:51:38;;;;;;;18.17;16.88;;;22.10;99.90;;;;;;5256928;28;20036;-66
2023/05/25 09:54:10;;;;;;;19.42;17.83;;;22.20;99.90;;;;;;5271307;28;20490;-69
2023/05/25 09:56:41;;;;;;;17.92;16.60;;;22.50;99.90;;;;;;5271175;28;20020;-69
2023/05/25 09:59:12;;;;;;;18.13;16.73;;;22.70;99.90;;;;;;5270975;28;20035;-69
2023/05/25 10:01:45;;;;;;;17.17;15.88;;;22.90;99.90;;;;;;5271079;28;20357;-66
2023/05/25 10:04:16;;;;;;;16.85;15.48;;;22.70;99.90;;;;;;5270941;28;20391;-67
2023/05/25 10:06:50;;;;;;;17.02;15.73;;;22.60;99.90;;;;;;5270937;28;20012;-69
2023/05/25 10:09:24;;;;;;;15.13;14.00;;;22.90;99.90;;;;;;5270855;28;20035;-70
2023/05/25 10:11:56;;;;;;;17.67;15.93;;;22.80;99.90;;;;;;5270701;28;20026;-69
2023/05/25 10:14:28;;;;;;;18.65;16.98;;;22.80;99.90;;;;;;5270733;28;20035;-70
2023/05/25 10:17:02;;;;;;;21.45;19.50;;;22.70;99.90;;;;;;5270797;28;20781;-70
2023/05/25 10:19:41;;;;;;;21.77;19.58;;;22.90;99.90;;;;;;5270539;28;20028;-66
2023/05/25 10:22:33;;;;;;;17.08;15.48;;;23.10;99.90;;;;;;5270654;28;20039;-69
2023/05/25 10:25:27;;;;;;;15.70;14.60;;;23.00;99.90;;;;;;5270439;28;20044;-69
2023/05/25 10:28:02;;;;;;;15.10;14.10;;;23.10;99.90;;;;;;5270621;28;20111;-70
2023/05/25 10:30:35;;;;;;;15.70;14.60;;;23.00;99.90;;;;;;5270350;28;20031;-70
2023/05/25 10:33:07;;;;;;;17.20;16.05;;;23.00;99.90;;;;;;5270359;28;20481;-67
2023/05/25 10:35:39;;;;;;;18.40;17.00;;;22.90;99.90;;;;;;5270381;28;20036;-70
2023/05/25 10:38:12;;;;;;;16.02;14.93;;;23.30;99.90;;;;;;5270189;28;20024;-69
2023/05/25 10:40:46;;;;;;;19.17;17.73;;;23.20;99.90;;;;;;5270129;28;20037;-69
2023/05/25 10:43:18;;;;;;;16.23;15.00;;;23.50;99.90;;;;;;5270099;28;20032;-69
2023/05/25 10:45:49;;;;;;;15.50;14.32;;;23.50;99.90;;;;;;5270043;28;20046;-69
2023/05/25 10:48:19;;;;;;;15.45;14.25;;;23.30;99.90;;;;;;5269800;28;20024;-69
2023/05/25 10:50:50;;;;;;;14.82;13.80;;;23.50;99.90;;;;;;5269829;28;20039;-68
2023/05/25 10:53:21;;;;;;;15.82;14.65;;;23.40;99.90;;;;;;5270048;28;20017;-70
2023/05/25 10:55:52;;;;;;;14.50;13.25;;;23.50;99.90;;;;;;5269836;28;20480;-69
2023/05/25 10:58:25;;;;;;;13.85;12.85;;;23.50;99.90;;;;;;5269803;28;20105;-69
2023/05/25 11:01:06;;;;;;;13.20;12.30;;;23.60;99.90;;;;;;5269832;28;20016;-70
2023/05/25 11:03:43;;;;;;;13.18;12.27;;;23.50;99.90;;;;;;5269920;28;20028;-69
2023/05/25 11:06:15;;;;;;;16.65;12.77;;;23.60;99.90;;;;;;5268628;28;20161;-66
2023/05/25 11:09:01;;;;;;;13.63;12.25;;;23.40;99.90;;;;;;5248929;28;20085;-69
2023/05/25 11:11:41;;;;;;;13.98;13.05;;;23.50;99.90;;;;;;5248791;28;20028;-67
2023/05/25 11:14:21;;;;;;;;;;;22.90;99.90;;;;;;5253864;28;20036;-67
2023/05/25 11:17:11;;;;;;;13.82;12.82;;;23.50;99.90;;;;;;5269719;28;20010;-69
2023/05/25 11:19:53;;;;;;;14.05;13.02;;;23.30;99.90;;;;;;5269432;28;20063;-69
2023/05/25 11:22:34;;;;;;;14.70;13.50;;;23.60;99.90;;;;;;5269513;28;20094;-69
2023/05/25 11:25:43;;;;;;;14.95;13.80;;;23.40;99.90;;;;;;5257728;28;20041;-67
2023/05/25 11:28:14;;;;;;;15.05;13.90;;;23.60;99.90;;;;;;5204727;28;20038;-69
2023/05/25 11:30:45;;;;;;;15.13;13.60;;;23.20;99.90;;;;;;5242087;28;20032;-69
2023/05/25 11:33:21;;;;;;;16.55;15.43;;;23.30;99.90;;;;;;5248302;28;20039;-69
2023/05/25 11:35:54;;;;;;;16.30;14.90;;;23.60;99.90;;;;;;5248235;28;20447;-66
2023/05/25 11:38:24;;;;;;;15.27;14.18;;;23.40;99.90;;;;;;5248136;28;20033;-67
2023/05/25 11:40:55;;;;;;;14.52;13.52;;;23.30;99.90;;;;;;5248149;28;20021;-70
2023/05/25 11:43:26;;;;;;;16.45;15.20;;;23.70;99.90;;;;;;5247945;28;20090;-69
2023/05/25 11:45:57;;;;;;;14.00;13.00;;;22.90;99.90;;;;;;5249528;28;20496;-70
2023/05/25 11:48:28;;;;;;;14.90;13.80;;;23.00;99.90;;;;;;5247790;28;20059;-70
2023/05/25 11:51:07;;;;;;;14.15;13.05;;;23.60;99.90;;;;;;5247723;28;20055;-69
2023/05/25 11:53:43;;;;;;;15.25;13.93;;;22.80;99.90;;;;;;5247874;28;20020;-70
2023/05/25 11:56:17;;;;;;;14.35;13.35;;;23.60;99.90;;;;;;5247867;28;20384;-70
2023/05/25 11:58:50;;;;;;;14.32;13.32;;;23.50;99.90;;;;;;5247342;28;20500;-66
2023/05/25 12:01:23;;;;;;;13.65;12.73;;;23.90;99.90;;;;;;5247372;28;20074;-70
2023/05/25 12:03:55;;;;;;;13.80;12.80;;;23.90;99.90;;;;;;5247737;28;20131;-70
2023/05/25 12:06:29;;;;;;;13.23;12.18;;;23.70;99.90;;;;;;5247685;28;20452;-69
2023/05/25 12:09:01;;;;;;;13.77;12.75;;;23.60;99.90;;;;;;5246336;28;20475;-70
2023/05/25 12:11:33;;;;;;;12.85;11.73;;;23.40;99.90;;;;;;5247697;28;20476;-66
2023/05/25 12:14:06;;;;;;;12.80;11.90;;;23.80;99.90;;;;;;5247557;28;20628;-70
2023/05/25 12:16:37;;;;;;;13.05;11.85;;;23.40;99.90;;;;;;5247681;28;20403;-69
2023/05/25 12:19:11;;;;;;;13.07;11.98;;;23.50;99.90;;;;;;5247352;28;20043;-69
2023/05/25 12:21:43;;;;;;;13.35;12.10;;;23.50;99.90;;;;;;5247516;28;20043;-69
2023/05/25 12:24:14;;;;;;;13.85;12.40;;;23.50;99.90;;;;;;5247569;28;20086;-69
2023/05/25 12:26:58;;;;;;;12.32;11.15;;;23.60;99.90;;;;;;5247494;28;20032;-71
2023/05/25 12:29:29;;;;;;;14.45;13.35;;;23.80;99.90;;;;;;5247471;28;20112;-70
2023/05/25 12:32:04;;;;;;;13.07;12.18;;;23.40;99.90;;;;;;5247309;28;20111;-68
2023/05/25 12:34:35;;;;;;;14.35;13.00;;;24.10;99.90;;;;;;5247375;28;20048;-70
2023/05/25 12:37:18;;;;;;;12.88;11.88;;;24.10;99.90;;;;;;5247355;28;20107;-69
2023/05/25 12:39:49;;;;;;;13.35;12.45;;;23.60;99.90;;;;;;5247365;28;20031;-70
2023/05/25 12:42:20;;;;;;;13.32;12.20;;;23.90;99.90;;;;;;5247247;28;20029;-69
2023/05/25 12:44:54;;;;;;;12.15;11.18;;;23.80;99.90;;;;;;5247333;28;20507;-70
2023/05/25 12:47:27;;;;;;;13.85;12.30;;;23.80;99.90;;;;;;5247274;28;20082;-69
2023/05/25 12:50:12;;;;;;;13.27;12.18;;;23.70;99.90;;;;;;5246929;28;20048;-70
2023/05/25 12:52:45;;;;;;;12.30;11.35;;;23.90;99.90;;;;;;5247327;28;20033;-70
2023/05/25 12:55:24;;;;;;;13.70;12.60;;;24.10;99.90;;;;;;5247074;28;20021;-70